General Guido, Argentina
Current Conditions -  °F | °C
As of 1:00 AM on Thursday 18 Dec 2014 (Local Time) from SAZM Reporting Station
Clear Clear  
Wind Chill: 52°   Ceiling: Unl
Heat Index: 52°   Visibility: 5mi
Dew Point: 48°   Wind: 3mph
Humidity: 88%   Direction: 320°NW
Pressure: 29.88"   Gusts: NA
Location:  36.67°S, 57.77°W
Report Text: SAZM 180400Z 32003KT 8000 NSC 11/09 Q1012
Loading
Personal Weather Stations






























Interactive Weather Map New forecast layout! Learn more

10-Day Weather Forecast

Advertisements
Track Severe Weather on mobile